createdAt,value
2023-01-13T00:07:08.838Z,9.3
2023-01-13T00:27:08.826Z,9.78
2023-01-13T00:47:08.804Z,10.07
2023-01-13T01:07:08.812Z,10.2
2023-01-13T01:27:08.730Z,10.1
2023-01-13T01:47:08.722Z,10.05
2023-01-13T02:07:08.686Z,9.98
2023-01-13T02:27:08.653Z,9.83
2023-01-13T02:47:08.619Z,9.67
2023-01-13T03:07:08.593Z,9.66
2023-01-13T03:27:08.573Z,9.48
2023-01-13T03:47:08.534Z,9.13
2023-01-13T05:07:08.437Z,8.58
2023-01-13T05:27:08.424Z,8.5
2023-01-13T05:47:08.400Z,8.36
2023-01-13T06:07:08.368Z,8.48
2023-01-13T06:27:08.350Z,8.48
2023-01-13T06:47:08.304Z,8.42
2023-01-13T07:07:08.276Z,8.34
2023-01-13T07:27:08.241Z,8.26
2023-01-13T07:47:08.245Z,8.15
2023-01-13T08:27:08.171Z,8.42
2023-01-13T08:47:08.153Z,8.53
2023-01-13T09:07:08.125Z,8.57
2023-01-13T09:27:08.088Z,8.64
2023-01-13T09:47:08.063Z,8.7
2023-01-13T11:27:07.943Z,9.47
2023-01-13T11:47:07.906Z,9.55
2023-01-13T14:07:07.727Z,8.92
2023-01-13T14:27:07.634Z,8.56
2023-01-13T14:47:07.604Z,8.3
2023-01-13T15:07:07.562Z,7.79
2023-01-13T15:27:07.530Z,7.74
2023-01-13T15:47:07.522Z,7.49
2023-01-13T16:07:07.487Z,7.71
2023-01-13T16:27:07.503Z,7.84
2023-01-13T16:47:07.562Z,8.03
2023-01-13T17:07:07.513Z,8.13
2023-01-13T17:27:07.480Z,8.12
2023-01-13T17:47:07.491Z,8.12
2023-01-13T18:07:07.426Z,8.16
2023-01-13T18:27:07.371Z,8.01
2023-01-13T18:47:07.387Z,8.12
2023-01-13T19:07:07.321Z,8.24
2023-01-13T19:47:07.281Z,8.36
2023-01-13T20:27:07.228Z,8.6
